Time;durP1;ratioP1;P1;durP2;ratioP2;P2;SDS_P1;SDS_P2;PMS_P1;PMS_P2;Temp;Humidity;BMP_temperature;BMP_pressure;BME280_temperature;BME280_humidity;BME280_pressure;Samples;Min_cycle;Max_cycle;Signal;HPM_P1;HPM_P2
2023/12/02 00:01:49;;;;;;;;;;;;;;;;;;6309034;22;19907;-85
2023/12/02 00:04:14;;;;;;;;;;;;;;;;;;6308727;22;19911;-89
2023/12/02 00:06:40;;;;;;;;;;;;;;;;;;6308697;22;20245;-90
2023/12/02 00:09:05;;;;;;;;;;;;;;;;;;6308435;22;19911;-87
2023/12/02 00:11:30;;;;;;;;;;;;;;;;;;6309037;22;20012;-89
2023/12/02 00:13:56;;;;;;;;;;;;;;;;;;6308914;22;19986;-85
2023/12/02 00:16:21;;;;;;;;;;;;;;;;;;6308669;22;19990;-88
2023/12/02 00:18:46;;;;;;;;;;;;;;;;;;6308501;22;19982;-89
2023/12/02 00:21:12;;;;;;;;;;;;;;;;;;6308227;22;20207;-85
2023/12/02 00:23:38;;;;;;;;;;;;;;;;;;6308327;22;19914;-90
2023/12/02 00:26:03;;;;;;;;;;;;;;;;;;6308675;22;19907;-88
2023/12/02 00:28:29;;;;;;;;;;;;;;;;;;6308674;22;19918;-90
2023/12/02 00:30:55;;;;;;;;;;;;;;;;;;6308594;22;19956;-89
2023/12/02 00:33:20;;;;;;;;;;;;;;;;;;6308638;22;20246;-89
2023/12/02 00:35:46;;;;;;;;;;;;;;;;;;6310450;22;19913;-88
2023/12/02 00:38:11;;;;;;;;;;;;;;;;;;6310316;22;19914;-89
2023/12/02 00:40:36;;;;;;;;;;;;;;;;;;6310240;22;19903;-89
2023/12/02 00:43:02;;;;;;;;;;;;;;;;;;6283043;22;20318;-89
2023/12/02 00:45:27;;;;;;;;;;;;;;;;;;6310385;22;20272;-90
2023/12/02 00:47:52;;;;;;;;;;;;;;;;;;6310231;22;19957;-89
2023/12/02 00:50:18;;;;;;;;;;;;;;;;;;6310496;22;19977;-90
2023/12/02 00:52:43;;;;;;;;;;;;;;;;;;6310256;22;19902;-88
2023/12/02 00:55:08;;;;;;;;;;;;;;;;;;6310142;22;19969;-84
2023/12/02 00:57:34;;;;;;;;;;;;;;;;;;6310364;22;19911;-90
2023/12/02 00:59:59;;;;;;;;;;;;;;;;;;6310066;22;19914;-89
2023/12/02 01:02:25;;;;;;;;;;;;;;;;;;6310463;22;19910;-89
2023/12/02 01:04:50;;;;;;;;;;;;;;;;;;6282739;22;19999;-85
2023/12/02 01:07:15;;;;;;;;;;;;;;;;;;6310159;22;20315;-85
2023/12/02 01:09:40;;;;;;;;;;;;;;;;;;6309973;22;19907;-90
2023/12/02 01:12:06;;;;;;;;;;;;;;;;;;6310694;22;19986;-85
2023/12/02 01:14:31;;;;;;;;;;;;;;;;;;6310391;22;19994;-90
2023/12/02 01:16:57;;;;;;;;;;;;;;;;;;6310220;22;20313;-90
2023/12/02 01:19:22;;;;;;;;;;;;;;;;;;6309668;22;20371;-90
2023/12/02 01:21:47;;;;;;;;;;;;;;;;;;6282801;22;19907;-90
2023/12/02 01:24:13;;;;;;;;;;;;;;;;;;6309863;22;19907;-89
2023/12/02 01:26:39;;;;;;;;;;;;;;;;;;6282613;22;19941;-89
2023/12/02 01:29:04;;;;;;;;;;;;;;;;;;6309934;22;19910;-85
2023/12/02 01:31:29;;;;;;;;;;;;;;;;;;6310347;22;20245;-90
2023/12/02 01:33:55;;;;;;;;;;;;;;;;;;6310184;22;19918;-88
2023/12/02 01:36:20;;;;;;;;;;;;;;;;;;6309879;22;20336;-85
2023/12/02 01:38:45;;;;;;;;;;;;;;;;;;6309842;22;19914;-85
2023/12/02 01:41:11;;;;;;;;;;;;;;;;;;6310677;22;19960;-88
2023/12/02 01:43:37;;;;;;;;;;;;;;;;;;6310057;22;19907;-90
2023/12/02 01:46:03;;;;;;;;;;;;;;;;;;6309859;22;19911;-86
2023/12/02 01:48:29;;;;;;;;;;;;;;;;;;6309982;22;19914;-89
2023/12/02 01:50:55;;;;;;;;;;;;;;;;;;6309499;22;19914;-89
2023/12/02 01:53:20;;;;;;;;;;;;;;;;;;6309717;22;19906;-90
2023/12/02 01:55:46;;;;;;;;;;;;;;;;;;6309423;22;19910;-85
2023/12/02 01:58:11;;;;;;;;;;;;;;;;;;6309957;22;19907;-89
2023/12/02 02:00:36;;;;;;;;;;;;;;;;;;6309847;22;19907;-85
2023/12/02 02:03:02;;;;;;;;;;;;;;;;;;6309873;22;20021;-88
2023/12/02 02:05:27;;;;;;;;;;;;;;;;;;6309814;22;19907;-90
2023/12/02 02:07:53;;;;;;;;;;;;;;;;;;6309703;22;19933;-89
2023/12/02 02:10:21;;;;;;;;;;;;;;;;;;6309310;22;19918;-89
2023/12/02 02:12:46;;;;;;;;;;;;;;;;;;6309413;22;19923;-87
2023/12/02 02:15:12;;;;;;;;;;;;;;;;;;6309657;22;19914;-88
2023/12/02 02:17:37;;;;;;;;;;;;;;;;;;6282252;22;19907;-89
2023/12/02 02:20:04;;;;;;;;;;;;;;;;;;6309628;22;19937;-88
2023/12/02 02:22:29;;;;;;;;;;;;;;;;;;6309308;22;19913;-84
2023/12/02 02:24:54;;;;;;;;;;;;;;;;;;6309585;22;19911;-89
2023/12/02 02:27:20;;;;;;;;;;;;;;;;;;6309365;22;19907;-86
2023/12/02 02:29:45;;;;;;;;;;;;;;;;;;6309482;22;19913;-84
2023/12/02 02:32:10;;;;;;;;;;;;;;;;;;6309249;22;19907;-88
2023/12/02 02:34:38;;;;;;;;;;;;;;;;;;6309409;22;19913;-84
2023/12/02 02:37:03;;;;;;;;;;;;;;;;;;6309536;22;19935;-88
2023/12/02 02:39:28;;;;;;;;;;;;;;;;;;6281788;22;19952;-88
2023/12/02 02:41:54;;;;;;;;;;;;;;;;;;6309666;22;19960;-89
2023/12/02 02:44:19;;;;;;;;;;;;;;;;;;6309809;22;19911;-88
2023/12/02 02:46:45;;;;;;;;;;;;;;;;;;6309470;22;19986;-87
2023/12/02 02:49:10;;;;;;;;;;;;;;;;;;6309404;22;19907;-88
2023/12/02 02:51:35;;;;;;;;;;;;;;;;;;6309488;22;19914;-87
2023/12/02 02:54:01;;;;;;;;;;;;;;;;;;6310036;22;19911;-89
2023/12/02 02:56:26;;;;;;;;;;;;;;;;;;6308932;22;19906;-89
2023/12/02 02:58:51;;;;;;;;;;;;;;;;;;6309531;22;19978;-88
2023/12/02 03:01:17;;;;;;;;;;;;;;;;;;6309108;22;20010;-88
2023/12/02 03:03:42;;;;;;;;;;;;;;;;;;6281855;22;19914;-87
2023/12/02 03:06:08;;;;;;;;;;;;;;;;;;6309325;22;19906;-88
2023/12/02 03:08:34;;;;;;;;;;;;;;;;;;6309041;22;19947;-84
2023/12/02 03:10:59;;;;;;;;;;;;;;;;;;6309157;22;19907;-87
2023/12/02 03:13:25;;;;;;;;;;;;;;;;;;6309379;22;19938;-87
2023/12/02 03:15:50;;;;;;;;;;;;;;;;;;6309108;22;19950;-89
2023/12/02 03:18:15;;;;;;;;;;;;;;;;;;6309058;22;19907;-85
2023/12/02 03:20:41;;;;;;;;;;;;;;;;;;6308832;22;19910;-88
2023/12/02 03:23:06;;;;;;;;;;;;;;;;;;6308875;22;19976;-88
2023/12/02 03:25:31;;;;;;;;;;;;;;;;;;6309130;22;20314;-88
2023/12/02 03:27:57;;;;;;;;;;;;;;;;;;6309318;22;19911;-83
2023/12/02 03:30:22;;;;;;;;;;;;;;;;;;6309289;22;19907;-88
2023/12/02 03:32:47;;;;;;;;;;;;;;;;;;6308850;22;19907;-88
2023/12/02 03:35:13;;;;;;;;;;;;;;;;;;6308464;22;19929;-85
2023/12/02 03:37:38;;;;;;;;;;;;;;;;;;6309007;22;19913;-88
2023/12/02 03:40:04;;;;;;;;;;;;;;;;;;6309068;22;19907;-89
2023/12/02 03:42:30;;;;;;;;;;;;;;;;;;6281514;22;20233;-88
2023/12/02 03:44:55;;;;;;;;;;;;;;;;;;6281479;22;19906;-85
2023/12/02 03:47:20;;;;;;;;;;;;;;;;;;6309005;22;19914;-88
2023/12/02 03:49:46;;;;;;;;;;;;;;;;;;6308757;22;19914;-89
2023/12/02 03:52:11;;;;;;;;;;;;;;;;;;6308873;22;19906;-89
2023/12/02 03:54:36;;;;;;;;;;;;;;;;;;6308930;22;19913;-87
2023/12/02 03:57:02;;;;;;;;;;;;;;;;;;6308874;22;19982;-88
2023/12/02 03:59:27;;;;;;;;;;;;;;;;;;6308900;22;19972;-86
2023/12/02 04:01:52;;;;;;;;;;;;;;;;;;6308791;22;19906;-87
2023/12/02 04:04:18;;;;;;;;;;;;;;;;;;6309018;22;19960;-89
2023/12/02 04:06:44;;;;;;;;;;;;;;;;;;6308803;22;19907;-88
2023/12/02 04:09:09;;;;;;;;;;;;;;;;;;6283327;22;19907;-88
2023/12/02 04:11:35;;;;;;;;;;;;;;;;;;6310823;22;19911;-87
2023/12/02 04:14:00;;;;;;;;;;;;;;;;;;6310998;22;20337;-88
2023/12/02 04:16:25;;;;;;;;;;;;;;;;;;6310745;22;19907;-88
2023/12/02 04:18:51;;;;;;;;;;;;;;;;;;6310730;22;19917;-89
2023/12/02 04:21:16;;;;;;;;;;;;;;;;;;6310320;22;19910;-88
2023/12/02 04:23:42;;;;;;;;;;;;;;;;;;6310516;22;19982;-87
2023/12/02 04:26:07;;;;;;;;;;;;;;;;;;6310759;22;19982;-89
2023/12/02 04:28:33;;;;;;;;;;;;;;;;;;6283301;22;19918;-87
2023/12/02 04:30:58;;;;;;;;;;;;;;;;;;6310549;22;19906;-88
2023/12/02 04:33:23;;;;;;;;;;;;;;;;;;6310896;22;19903;-89
2023/12/02 04:35:49;;;;;;;;;;;;;;;;;;6283263;22;19907;-87
2023/12/02 04:38:15;;;;;;;;;;;;;;;;;;6310475;22;20267;-88
2023/12/02 04:40:40;;;;;;;;;;;;;;;;;;6310465;22;19914;-89
2023/12/02 04:43:06;;;;;;;;;;;;;;;;;;6310587;22;19906;-85
2023/12/02 04:45:31;;;;;;;;;;;;;;;;;;6310989;22;19907;-88
2023/12/02 04:47:56;;;;;;;;;;;;;;;;;;6310177;22;19907;-89
2023/12/02 04:50:22;;;;;;;;;;;;;;;;;;6310527;22;19984;-89
2023/12/02 04:52:47;;;;;;;;;;;;;;;;;;6310259;22;19911;-85
2023/12/02 04:55:13;;;;;;;;;;;;;;;;;;6282498;22;19906;-88
2023/12/02 04:57:38;;;;;;;;;;;;;;;;;;6310634;22;19941;-88
2023/12/02 05:00:14;;;;;;;;;;;;;;;;;;6310193;22;19907;-89
2023/12/02 05:02:42;;;;;;;;;;;;;;;;;;6310517;22;19907;-90
2023/12/02 05:05:08;;;;;;;;;;;;;;;;;;6282616;22;19907;-90
2023/12/02 05:07:34;;;;;;;;;;;;;;;;;;6310356;22;19906;-86
2023/12/02 05:09:59;;;;;;;;;;;;;;;;;;6310180;22;19946;-89
2023/12/02 05:12:25;;;;;;;;;;;;;;;;;;6310547;22;20419;-89
2023/12/02 05:14:51;;;;;;;;;;;;;;;;;;6309838;22;19960;-89
2023/12/02 05:17:16;;;;;;;;;;;;;;;;;;6282902;22;19942;-89
2023/12/02 05:19:42;;;;;;;;;;;;;;;;;;6309468;22;19921;-85
2023/12/02 05:22:08;;;;;;;;;;;;;;;;;;6310231;22;19947;-90
2023/12/02 05:24:33;;;;;;;;;;;;;;;;;;6309976;22;19914;-85
2023/12/02 05:26:58;;;;;;;;;;;;;;;;;;6310357;22;19907;-89
2023/12/02 05:29:24;;;;;;;;;;;;;;;;;;6310090;22;19918;-86
2023/12/02 05:31:49;;;;;;;;;;;;;;;;;;6310495;22;19917;-88
2023/12/02 05:34:15;;;;;;;;;;;;;;;;;;6310120;22;19934;-85
2023/12/02 05:36:40;;;;;;;;;;;;;;;;;;6309785;22;19990;-88
2023/12/02 05:39:05;;;;;;;;;;;;;;;;;;6309963;22;19982;-86
2023/12/02 05:41:31;;;;;;;;;;;;;;;;;;6310125;22;20045;-90
2023/12/02 05:43:56;;;;;;;;;;;;;;;;;;6310035;22;19972;-85
2023/12/02 05:46:21;;;;;;;;;;;;;;;;;;6309947;22;19907;-89
2023/12/02 05:48:47;;;;;;;;;;;;;;;;;;6309709;22;20337;-85
2023/12/02 05:51:12;;;;;;;;;;;;;;;;;;6309711;22;19914;-90
2023/12/02 05:53:38;;;;;;;;;;;;;;;;;;6309971;22;19913;-86
2023/12/02 05:56:04;;;;;;;;;;;;;;;;;;6310059;22;19907;-89
2023/12/02 05:58:30;;;;;;;;;;;;;;;;;;6310551;22;20314;-85
2023/12/02 06:00:55;;;;;;;;;;;;;;;;;;6310579;22;20314;-88
2023/12/02 06:03:20;;;;;;;;;;;;;;;;;;6310361;22;19959;-85
2023/12/02 06:05:46;;;;;;;;;;;;;;;;;;6309649;22;19902;-85
2023/12/02 06:08:11;;;;;;;;;;;;;;;;;;6310020;22;19985;-83
2023/12/02 06:10:37;;;;;;;;;;;;;;;;;;6309823;22;19929;-82
2023/12/02 06:13:02;;;;;;;;;;;;;;;;;;6310411;22;19906;-83
2023/12/02 06:15:28;;;;;;;;;;;;;;;;;;6310636;22;19914;-83
2023/12/02 06:17:56;;;;;;;;;;;;;;;;;;6282758;22;19913;-82
2023/12/02 06:20:24;;;;;;;3.35;2.10;;;;;;;;;;6308828;22;20246;-82
2023/12/02 06:22:50;;;;;;;2.97;2.10;;;;;;;;;;6309293;22;20090;-86
2023/12/02 06:25:15;;;;;;;6.72;2.58;;;;;;;;;;6281867;22;20026;-85
2023/12/02 06:27:41;;;;;;;6.43;2.30;;;;;;;;;;6308777;22;20421;-84
2023/12/02 06:30:08;;;;;;;3.88;2.10;;;;;;;;;;6308621;22;20078;-85
2023/12/02 06:32:33;;;;;;;4.50;2.35;;;;;;;;;;6308648;22;20003;-84
2023/12/02 06:34:59;;;;;;;5.80;2.20;;;;;;;;;;6308545;22;20010;-84
2023/12/02 06:37:24;;;;;;;6.78;3.33;;;;;;;;;;6308816;22;19999;-84
2023/12/02 06:39:50;;;;;;;3.83;2.15;;;;;;;;;;6308587;22;20006;-86
2023/12/02 06:42:15;;;;;;;6.65;3.10;;;;;;;;;;6308800;22;20082;-84
2023/12/02 06:44:42;;;;;;;6.22;2.90;;;;;;;;;;6308851;22;20003;-85
2023/12/02 06:47:08;;;;;;;8.05;3.08;;;;;;;;;;6308947;22;20025;-85
2023/12/02 06:49:34;;;;;;;8.45;2.90;;;;;;;;;;6281316;22;20003;-85
2023/12/02 06:51:59;;;;;;;4.28;2.63;;;;;;;;;;6309182;22;20076;-85
2023/12/02 06:54:25;;;;;;;6.32;2.53;;;;;;;;;;6308947;22;20475;-84
2023/12/02 06:56:50;;;;;;;8.80;3.20;;;;;;;;;;6309277;22;20064;-86
2023/12/02 06:59:16;;;;;;;5.57;2.85;;;;;;;;;;6308901;22;20423;-82
2023/12/02 07:01:41;;;;;;;6.60;2.70;;;;;;;;;;6307842;22;19999;-90
2023/12/02 07:04:07;;;;;;;7.75;2.92;;;;;;;;;;6308289;22;20007;-83
2023/12/02 07:06:32;;;;;;;5.82;2.60;;;;;;;;;;6308579;22;20017;-85
2023/12/02 07:08:58;;;;;;;5.30;2.33;;;;;;;;;;6308388;22;20027;-83
2023/12/02 07:11:24;;;;;;;7.25;2.97;;;;;;;;;;6307879;22;20003;-83
2023/12/02 07:13:50;;;;;;;12.50;4.00;;;;;;;;;;6308205;22;20003;-82
2023/12/02 07:16:16;;;;;;;6.82;3.35;;;;;;;;;;6308359;22;20450;-83
2023/12/02 07:18:41;;;;;;;8.80;3.35;;;;;;;;;;6280743;22;19999;-82
2023/12/02 07:21:08;;;;;;;8.57;3.40;;;;;;;;;;6308625;22;20011;-85
2023/12/02 07:23:34;;;;;;;8.55;3.28;;;;;;;;;;6307987;22;20308;-83
2023/12/02 07:25:59;;;;;;;6.78;3.10;;;;;;;;;;6308199;22;20007;-82
2023/12/02 07:28:25;;;;;;;7.45;3.50;;;;;;;;;;6308043;22;20089;-82
2023/12/02 07:30:51;;;;;;;6.72;2.55;;;;;;;;;;6308085;22;20082;-84
2023/12/02 07:33:18;;;;;;;4.95;2.20;;;;;;;;;;6308123;22;20007;-86
2023/12/02 07:35:44;;;;;;;6.85;2.53;;;;;;;;;;6308092;22;20299;-83
2023/12/02 07:38:09;;;;;;;7.65;3.33;;;;;;;;;;6308419;22;20086;-82
2023/12/02 07:40:35;;;;;;;9.05;3.20;;;;;;;;;;6308105;22;20003;-85
2023/12/02 07:43:01;;;;;;;8.32;3.53;;;;;;;;;;6307897;22;20003;-85
2023/12/02 07:45:27;;;;;;;8.50;3.78;;;;;;;;;;6308025;22;19995;-81
2023/12/02 07:47:52;;;;;;;;;;;;;;;;;;6308030;22;19907;-86
2023/12/02 07:50:18;;;;;;;;;;;;;;;;;;6308349;22;19965;-85
2023/12/02 07:52:43;;;;;;;;;;;;;;;;;;6308717;22;19925;-86
2023/12/02 07:55:08;;;;;;;;;;;;;;;;;;6308408;22;20314;-89
2023/12/02 07:57:34;;;;;;;;;;;;;;;;;;6308492;22;19941;-85
2023/12/02 07:59:59;;;;;;;;;;;;;;;;;;6308195;22;19942;-83
2023/12/02 08:02:24;;;;;;;;;;;;;;;;;;6308312;22;20123;-86
2023/12/02 08:04:50;;;;;;;;;;;;;;;;;;6308249;22;19907;-86
2023/12/02 08:07:15;;;;;;;;;;;;;;;;;;6308230;22;19917;-83
2023/12/02 08:09:41;;;;;;;;;;;;;;;;;;6280983;22;20234;-83
2023/12/02 08:12:06;;;;;;;;;;;;;;;;;;6308418;22;19914;-83
2023/12/02 08:14:31;;;;;;;;;;;;;;;;;;6308739;22;19907;-82
2023/12/02 08:16:57;;;;;;;;;;;;;;;;;;6309152;22;19953;-85
2023/12/02 08:19:22;;;;;;;;;;;;;;;;;;6307917;22;19910;-83
2023/12/02 08:21:47;;;;;;;;;;;;;;;;;;6308573;22;19942;-83
2023/12/02 08:24:13;;;;;;;;;;;;;;;;;;6308133;22;19911;-82
2023/12/02 08:26:38;;;;;;;;;;;;;;;;;;6308863;22;19907;-86
2023/12/02 08:29:03;;;;;;;;;;;;;;;;;;6308482;22;19910;-86
2023/12/02 08:31:30;;;;;;;;;;;;;;;;;;6280704;22;20287;-82
2023/12/02 08:33:55;;;;;;;;;;;;;;;;;;6308025;22;19918;-83
2023/12/02 08:36:20;;;;;;;;;;;;;;;;;;6308024;22;19906;-85
2023/12/02 08:38:46;;;;;;;;;;;;;;;;;;6308392;22;19960;-82
2023/12/02 08:41:11;;;;;;;;;;;;;;;;;;6280603;22;19906;-83
2023/12/02 08:43:37;;;;;;;;;;;;;;;;;;6308188;22;20229;-86
2023/12/02 08:46:02;;;;;;;;;;;;;;;;;;6308500;22;19914;-84
2023/12/02 08:48:28;;;;;;;;;;;;;;;;;;6308241;22;20337;-81
2023/12/02 08:50:53;;;;;;;;;;;;;;;;;;6308031;22;19968;-83
2023/12/02 08:53:18;;;;;;;;;;;;;;;;;;6306842;22;19907;-82
2023/12/02 08:55:44;;;;;;;;;;;;;;;;;;6281757;22;19914;-82
2023/12/02 08:58:09;;;;;;;;;;;;;;;;;;6309488;22;19981;-84
2023/12/02 09:00:34;;;;;;;;;;;;;;;;;;6309205;22;19911;-82
2023/12/02 09:03:00;;;;;;;;;;;;;;;;;;6309710;22;19906;-82
2023/12/02 09:05:25;;;;;;;;;;;;;;;;;;6310412;22;19911;-82
2023/12/02 09:07:50;;;;;;;;;;;;;;;;;;6309872;22;19907;-81
2023/12/02 09:10:16;;;;;;;;;;;;;;;;;;6281994;22;20360;-82
2023/12/02 09:12:42;;;;;;;;;;;;;;;;;;6310163;22;19911;-81
2023/12/02 09:15:09;;;;;;;;;;;;;;;;;;6309897;22;20329;-81
2023/12/02 09:17:41;;;;;;;;;;;;;;;;;;6309515;22;19911;-83
2023/12/02 16:39:09;;;;;;;;;;;;;;;;;;6295826;22;19915;-89
2023/12/02 16:41:34;;;;;;;;;;;;;;;;;;6279333;22;19964;-88
2023/12/02 16:44:00;;;;;;;;;;;;;;;;;;6280208;22;19910;-88
2023/12/02 16:46:25;;;;;;;;;;;;;;;;;;6278632;22;19911;-87
2023/12/02 16:48:50;;;;;;;;;;;;;;;;;;6278544;22;19907;-87
2023/12/02 16:51:16;;;;;;;;;;;;;;;;;;6279302;22;19960;-87
2023/12/02 16:53:42;;;;;;;;;;;;;;;;;;6279682;22;19953;-86
2023/12/02 16:56:08;;;;;;;;;;;;;;;;;;6281783;22;19937;-86
2023/12/02 16:58:34;;;;;;;;;;;;;;;;;;6280242;22;19907;-85
2023/12/02 17:01:01;;;;;;;;;;;;;;;;;;6280859;22;19903;-86
2023/12/02 17:03:31;;;;;;;;;;;;;;;;;;6283140;22;20164;-85
2023/12/02 17:05:56;;;;;;;;;;;;;;;;;;6282814;22;19914;-87
2023/12/02 17:08:23;;;;;;;;;;;;;;;;;;6286333;22;19927;-87
2023/12/02 17:10:59;;;;;;;;;;;;;;;;;;6287202;22;19911;-87
2023/12/02 17:13:25;;;;;;;;;;;;;;;;;;6285912;22;20001;-87
2023/12/02 17:15:50;;;;;;;;;;;;;;;;;;6282347;22;19916;-88
2023/12/02 17:18:31;;;;;;;;;;;;;;;;;;6283886;22;20286;-88
2023/12/02 17:20:57;;;;;;;;;;;;;;;;;;6281839;22;19918;-86
2023/12/02 17:23:28;;;;;;;;;;;;;;;;;;6281452;22;19911;-87
2023/12/02 17:25:54;;;;;;;;;;;;;;;;;;6280284;22;20406;-87
2023/12/02 17:28:20;;;;;;;;;;;;;;;;;;6283002;22;19951;-87
2023/12/02 17:30:45;;;;;;;;;;;;;;;;;;6280863;22;19919;-87
2023/12/02 17:33:11;;;;;;;;;;;;;;;;;;6254822;22;19915;-88
2023/12/02 17:35:36;;;;;;;;;;;;;;;;;;6279490;22;19918;-86
2023/12/02 17:38:03;;;;;;;;;;;;;;;;;;6280293;22;19911;-85
2023/12/02 17:40:29;;;;;;;;;;;;;;;;;;6279383;22;19961;-86
2023/12/02 17:42:54;;;;;;;;;;;;;;;;;;6278910;22;19915;-86
2023/12/02 17:45:19;;;;;;;;;;;;;;;;;;6278625;22;19926;-86
2023/12/02 17:47:45;;;;;;;;;;;;;;;;;;6279551;22;19955;-84
2023/12/02 17:50:10;;;;;;;;;;;;;;;;;;6277551;22;19911;-86
2023/12/02 17:52:35;;;;;;;;;;;;;;;;;;6277226;22;20025;-86
2023/12/02 17:55:01;;;;;;;;;;;;;;;;;;6277092;22;20315;-85
2023/12/02 17:57:26;;;;;;;;;;;;;;;;;;6278943;22;19957;-86
2023/12/02 17:59:52;;;;;;;;;;;;;;;;;;6277692;22;19912;-86
2023/12/02 18:02:17;;;;;;;;;;;;;;;;;;6277856;22;19915;-86
2023/12/02 18:04:42;;;;;;;;;;;;;;;;;;6277370;22;19997;-83
2023/12/02 18:07:08;;;;;;;;;;;;;;;;;;6278968;22;19919;-86
2023/12/02 18:09:33;;;;;;;;;;;;;;;;;;6279282;22;19941;-88
2023/12/02 18:12:00;;;;;;;;;;;;;;;;;;6277665;22;20234;-86
2023/12/02 18:14:26;;;;;;;;;;;;;;;;;;6278413;22;20277;-89
2023/12/02 18:16:52;;;;;;;;;;;;;;;;;;6279306;22;19911;-86
2023/12/02 18:19:18;;;;;;;;;;;;;;;;;;6277101;22;20346;-86
2023/12/02 18:21:43;;;;;;;;;;;;;;;;;;6277356;22;19919;-85
2023/12/02 18:24:09;;;;;;;;;;;;;;;;;;6277044;22;20377;-87
2023/12/02 18:26:34;;;;;;;;;;;;;;;;;;6278851;22;20376;-89
2023/12/02 18:28:59;;;;;;;;;;;;;;;;;;6279857;22;20318;-90
2023/12/02 18:31:25;;;;;;;;;;;;;;;;;;6278159;22;20302;-92
2023/12/02 18:33:50;;;;;;;;;;;;;;;;;;6278567;22;19912;-90
2023/12/02 18:36:16;;;;;;;;;;;;;;;;;;6278257;22;19912;-93
2023/12/02 18:38:41;;;;;;;;;;;;;;;;;;6281355;22;19919;-91
2023/12/02 18:41:08;;;;;;;;;;;;;;;;;;6283177;22;19919;-89
2023/12/02 18:43:33;;;;;;;;;;;;;;;;;;6310430;22;19918;-89
2023/12/02 18:45:59;;;;;;;;;;;;;;;;;;6282670;22;19911;-88
2023/12/02 18:48:24;;;;;;;;;;;;;;;;;;6282745;22;19911;-88
2023/12/02 18:50:49;;;;;;;;;;;;;;;;;;6282958;22;19918;-89
2023/12/02 18:53:15;;;;;;;;;;;;;;;;;;6282470;22;19911;-88
2023/12/02 18:55:40;;;;;;;;;;;;;;;;;;6283208;22;20010;-86
2023/12/02 18:58:07;;;;;;;;;;;;;;;;;;6310970;22;19918;-95
2023/12/02 19:00:33;;;;;;;;;;;;;;;;;;6282347;22;19956;-85
2023/12/02 19:02:59;;;;;;;;;;;;;;;;;;6282222;22;19911;-86
2023/12/02 19:05:24;;;;;;;;;;;;;;;;;;6282892;22;19953;-87
2023/12/02 19:07:49;;;;;;;;;;;;;;;;;;6282409;22;19918;-89
2023/12/02 19:10:15;;;;;;;;;;;;;;;;;;6309942;22;19911;-86
2023/12/02 19:12:40;;;;;;;;;;;;;;;;;;6282646;22;19933;-88
2023/12/02 19:15:05;;;;;;;;;;;;;;;;;;6257535;22;20318;-89
2023/12/02 19:17:31;;;;;;;;;;;;;;;;;;6283013;22;19937;-85
2023/12/02 19:19:56;;;;;;;;;;;;;;;;;;6309273;22;20377;-86
2023/12/02 19:22:24;;;;;;;;;;;;;;;;;;6281697;22;19911;-87
2023/12/02 19:24:50;;;;;;;;;;;;;;;;;;6282315;22;19911;-87
2023/12/02 19:27:15;;;;;;;;;;;;;;;;;;6282327;22;19991;-87
2023/12/02 19:29:40;;;;;;;;;;;;;;;;;;6282764;22;19918;-88
2023/12/02 19:32:07;;;;;;;;;;;;;;;;;;6283293;22;19918;-87
2023/12/02 19:34:33;;;;;;;;;;;;;;;;;;6281932;22;19915;-85
2023/12/02 19:37:00;;;;;;;;;;;;;;;;;;6282473;22;19941;-87
2023/12/02 19:39:26;;;;;;;;;;;;;;;;;;6282557;22;20021;-87
2023/12/02 19:41:51;;;;;;;;;;;;;;;;;;6309312;22;19917;-87
2023/12/02 19:44:16;;;;;;;;;;;;;;;;;;6282785;22;20337;-86
2023/12/02 19:46:43;;;;;;;;;;;;;;;;;;6310907;22;19938;-86
2023/12/02 19:49:08;;;;;;;;;;;;;;;;;;6282040;22;20368;-86
2023/12/02 19:51:34;;;;;;;;;;;;;;;;;;6281876;22;19914;-86
2023/12/02 19:54:00;;;;;;;;;;;;;;;;;;6309034;22;19919;-86
2023/12/02 19:56:26;;;;;;;;;;;;;;;;;;6282196;22;19911;-86
2023/12/02 19:58:51;;;;;;;;;;;;;;;;;;6281840;22;20347;-85
2023/12/02 20:01:17;;;;;;;;;;;;;;;;;;6309734;22;19911;-86
2023/12/02 20:03:42;;;;;;;;;;;;;;;;;;6282557;22;19911;-85
2023/12/02 20:06:08;;;;;;;;;;;;;;;;;;6281458;22;19915;-86
2023/12/02 20:08:33;;;;;;;;;;;;;;;;;;6281943;22;19911;-86
2023/12/02 20:10:59;;;;;;;;;;;;;;;;;;6281825;22;19911;-86
2023/12/02 20:13:24;;;;;;;;;;;;;;;;;;6281442;22;19911;-85
2023/12/02 20:15:49;;;;;;;;;;;;;;;;;;6280528;22;19911;-83
2023/12/02 20:18:15;;;;;;;;;;;;;;;;;;6308761;22;20322;-83
2023/12/02 20:20:40;;;;;;;;;;;;;;;;;;6281389;22;19941;-82
2023/12/02 20:23:05;;;;;;;;;;;;;;;;;;6283748;22;20237;-83
2023/12/02 20:25:31;;;;;;;;;;;;;;;;;;6311331;22;19973;-81
2023/12/02 20:27:56;;;;;;;;;;;;;;;;;;6311906;22;19965;-83
2023/12/02 20:30:21;;;;;;;;;;;;;;;;;;6311439;22;19914;-84
2023/12/02 20:32:47;;;;;;;;;;;;;;;;;;6309239;22;19919;-83
2023/12/02 20:35:12;;;;;;;;;;;;;;;;;;6308580;22;20289;-83
2023/12/02 20:37:37;;;;;;;;;;;;;;;;;;6308237;22;20226;-83
2023/12/02 20:40:03;;;;;;;;;;;;;;;;;;6308058;22;19982;-82
2023/12/02 20:42:28;;;;;;;;;;;;;;;;;;6281193;22;19993;-83
2023/12/02 20:44:54;;;;;;;;;;;;;;;;;;6308387;22;20245;-85
2023/12/02 20:47:19;;;;;;;;;;;;;;;;;;6281590;22;19964;-85
2023/12/02 20:49:45;;;;;;;;;;;;;;;;;;6281736;22;19945;-85
2023/12/02 20:52:11;;;;;;;;;;;;;;;;;;6283083;22;19911;-85
2023/12/02 20:54:36;;;;;;;;;;;;;;;;;;6283151;22;19980;-84
2023/12/02 20:57:02;;;;;;;;;;;;;;;;;;6310397;22;19918;-85
2023/12/02 20:59:27;;;;;;;;;;;;;;;;;;6283524;22;19942;-86
2023/12/02 21:01:54;;;;;;;;;;;;;;;;;;6283318;22;19910;-86
2023/12/02 21:04:20;;;;;;;;;;;;;;;;;;6283462;22;19911;-86
2023/12/02 21:06:46;;;;;;;;;;;;;;;;;;6283411;22;19907;-86
2023/12/02 21:09:11;;;;;;;;;;;;;;;;;;6282958;22;20330;-85
2023/12/02 21:11:37;;;;;;;;;;;;;;;;;;6282801;22;19922;-85
2023/12/02 21:14:02;;;;;;;;;;;;;;;;;;6283095;22;19907;-85
2023/12/02 21:16:27;;;;;;;;;;;;;;;;;;6282616;22;19922;-84
2023/12/02 21:18:52;;;;;;;;;;;;;;;;;;6282735;22;19910;-85
2023/12/02 21:21:18;;;;;;;;;;;;;;;;;;6310082;22;19990;-85
2023/12/02 21:23:43;;;;;;;;;;;;;;;;;;6282706;22;19918;-85
2023/12/02 21:26:11;;;;;;;;;;;;;;;;;;6282758;22;19918;-85
2023/12/02 21:28:36;;;;;;;;;;;;;;;;;;6309962;22;19911;-84
2023/12/02 21:31:01;;;;;;;;;;;;;;;;;;6282841;22;19917;-85
2023/12/02 21:33:32;;;;;;;;;;;;;;;;;;6282765;22;19918;-85
2023/12/02 21:35:57;;;;;;;;;;;;;;;;;;6282719;22;20326;-85
2023/12/02 21:38:33;;;;;;;;;;;;;;;;;;6282849;22;19917;-85
2023/12/02 21:41:07;;;;;;;;;;;;;;;;;;6246686;23;20331;-85
2023/12/02 21:43:33;;;;;;;;;;;;;;;;;;6248368;22;19990;-85
2023/12/02 21:45:59;;;;;;;;;;;;;;;;;;6246911;23;20260;-84
2023/12/02 21:48:27;;;;;;;;;;;;;;;;;;6246864;23;19918;-85
2023/12/02 21:50:54;;;;;;;;;;;;;;;;;;6246775;23;19912;-85
2023/12/02 21:53:19;;;;;;;;;;;;;;;;;;6248306;22;19912;-85
2023/12/02 21:55:44;;;;;;;;;;;;;;;;;;6246510;23;19919;-84
2023/12/02 21:58:10;;;;;;;;;;;;;;;;;;6246732;23;20165;-85
2023/12/02 22:00:35;;;;;;;;;;;;;;;;;;6246715;23;19912;-85
2023/12/02 22:03:03;;;;;;;;;;;;;;;;;;6246320;23;20350;-85
2023/12/02 22:05:29;;;;;;;;;;;;;;;;;;6247896;22;19916;-84
2023/12/02 22:08:03;;;;;;;;;;;;;;;;;;6246621;23;20311;-85
2023/12/02 22:10:28;;;;;;;;;;;;;;;;;;6246435;23;19916;-84
2023/12/02 22:12:54;;;;;;;;;;;;;;;;;;6246549;23;19912;-85
2023/12/02 22:15:22;;;;;;;;;;;;;;;;;;6246571;23;19919;-85
2023/12/02 22:17:48;;;;;;;;;;;;;;;;;;6246388;23;19968;-84
2023/12/02 22:20:25;;;;;;;;;;;;;;;;;;6247946;22;19952;-84
2023/12/02 22:22:59;;;;;;;;;;;;;;;;;;6246316;23;19994;-84
2023/12/02 22:25:28;;;;;;;;;;;;;;;;;;6246245;23;19926;-86
2023/12/02 22:27:59;;;;;;;;;;;;;;;;;;6246491;23;19916;-84
2023/12/02 22:30:24;;;;;;;;;;;;;;;;;;6246275;23;19911;-84
2023/12/02 22:33:00;;;;;;;;;;;;;;;;;;6246218;23;19965;-84
2023/12/02 22:35:27;;;;;;;;;;;;;;;;;;6245994;23;20279;-84
2023/12/02 22:37:52;;;;;;;;;;;;;;;;;;6246372;23;20054;-84
2023/12/02 22:40:26;;;;;;;;;;;;;;;;;;6268482;22;20297;-84
2023/12/02 22:42:51;;;;;;;;;;;;;;;;;;6276640;22;19918;-84
2023/12/02 22:45:21;;;;;;;;;;;;;;;;;;6276478;22;19911;-84
2023/12/02 22:47:46;;;;;;;;;;;;;;;;;;6278269;22;19958;-84
2023/12/02 22:50:15;;;;;;;;;;;;;;;;;;6276498;22;19919;-84
2023/12/02 22:52:40;;;;;;;;;;;;;;;;;;6278296;22;19930;-84
2023/12/02 22:55:06;;;;;;;;;;;;;;;;;;6277970;22;19911;-84
2023/12/02 22:57:31;;;;;;;;;;;;;;;;;;6276324;22;19957;-84
2023/12/02 22:59:57;;;;;;;;;;;;;;;;;;6278050;22;19911;-84
2023/12/02 23:02:22;;;;;;;;;;;;;;;;;;6278113;22;20409;-84
2023/12/02 23:04:48;;;;;;;;;;;;;;;;;;6278084;22;19990;-84
2023/12/02 23:07:13;;;;;;;;;;;;;;;;;;6276405;22;20399;-84
2023/12/02 23:09:59;;;;;;;;;;;;;;;;;;6276552;22;19918;-84
2023/12/02 23:12:28;;;;;;;;;;;;;;;;;;6275858;22;19911;-85
2023/12/02 23:14:57;;;;;;;;;;;;;;;;;;6276346;22;20337;-84
2023/12/02 23:17:23;;;;;;;;;;;;;;;;;;6276297;22;20395;-84
2023/12/02 23:19:48;;;;;;;;;;;;;;;;;;6276545;22;19954;-83
2023/12/02 23:22:14;;;;;;;;;;;;;;;;;;6276330;22;19908;-84
2023/12/02 23:24:39;;;;;;;;;;;;;;;;;;6277780;22;19947;-83
2023/12/02 23:27:05;;;;;;;;;;;;;;;;;;6276486;22;19907;-82
2023/12/02 23:29:30;;;;;;;;;;;;;;;;;;6277898;22;20037;-83
2023/12/02 23:31:57;;;;;;;;;;;;;;;;;;6277859;22;19915;-83
2023/12/02 23:34:22;;;;;;;;;;;;;;;;;;6276048;22;19907;-83
2023/12/02 23:36:48;;;;;;;;;;;;;;;;;;6276045;22;19965;-83
2023/12/02 23:39:21;;;;;;;;;;;;;;;;;;6286615;22;19939;-83
2023/12/02 23:41:46;;;;;;;;;;;;;;;;;;6281337;22;19937;-83
2023/12/02 23:44:21;;;;;;;;;;;;;;;;;;6281032;22;20337;-83